Airfield :
LOGIN :

Register | Disclaimer

   EN    FR    IT 

 










Legend :    VFR   Marginal VFR   IFR   Intensive IFR   Very Intensive IFR
Visi :
Ceiling :
>= 8 km
>= 3000ft
5 to 8 km
1000 to 3000 ft
1500m to 5 km
500 to 1000 ft
800 to 1500m
200 to 500 ft
< 800m
< 200 ft
Symbols :   Thunderstorms  Fog  Heavy snow  Heavy precipitations  Wind > 20 kt
SIGMETs :     Misc.  Thunderstorms  Icing  Turbulence  Mountain Waves  Volcanic Ashes






- Airport Elevation : 157 ft
- IATA code : SXF


EDDB - Berlin Schönefeld

CURRENT METAR :
  • 291120Z AUTO 15008KT 120V180 CAVOK 08/02 Q1017 NOSIG

EXPIRED METARs :
  • 291050Z AUTO 14008KT CAVOK 07/02 Q1018 NOSIG
  • 291020Z AUTO 16009KT CAVOK 06/02 Q1018 NOSIG
  • 290950Z AUTO 14008KT CAVOK 05/01 Q1018 NOSIG
  • 290920Z AUTO 14009KT 110V190 CAVOK 05/01 Q1018 NOSIG
  • 290850Z AUTO 14007KT CAVOK 04/00 Q1019 NOSIG
  • 290820Z AUTO 13008KT 9000 NCD 03/00 Q1019 NOSIG
  • 290750Z AUTO 13008KT 7000 NCD 01/M01 Q1019 NOSIG
  • 290720Z AUTO 12006KT 7000 NCD 00/M01 Q1019 NOSIG
  • 290650Z AUTO 12004KT 6000 NCD M01/M02 Q1019 NOSIG

TAF TAF EDDB
Valid from the 29 at 12:00 until the 01 at 12:00 UTC


291100Z 2912/0112 14008KT CAVOK
TEMPO 0100/0108 4000 BR
PROB40
TEMPO 0102/0107 0600 FG BKN001



MET'MAP, your aeronautical weather chart ! - Copyright ORBIFLY December 2007 - Disclaimer

ORBIFLY MET'MAP TEAM :

Programming & Development : Alexandra Zaïnal
Original concept : Baudouin d'Aumeries
Technical & hardware support : Manuel Goepfert
Assistance : Marc-Olivier Méhu




SOURCES & CREDITS :

   NOAA